Time;durP1;ratioP1;P1;durP2;ratioP2;P2;SDS_P1;SDS_P2;PMS_P1;PMS_P2;Temp;Humidity;BMP_temperature;BMP_pressure;BME280_temperature;BME280_humidity;BME280_pressure;Samples;Min_cycle;Max_cycle;Signal;HPM_P1;HPM_P2
2022/07/12 00:01:06;;;;;;;;;19.40;17.40;;;;;19.61;44.42;99794.03;5104278;28;8848;-79
2022/07/12 00:03:36;;;;;;;;;20.40;17.80;;;;;19.55;44.37;99792.47;5075200;28;8836;-76
2022/07/12 00:06:05;;;;;;;;;15.40;14.40;;;;;19.53;44.60;99798.69;5070465;28;8970;-78
2022/07/12 00:08:35;;;;;;;;;14.80;13.40;;;;;19.52;44.68;99795.19;5052659;28;8855;-78
2022/07/12 00:11:03;;;;;;;;;15.40;15.40;;;;;19.52;44.74;99807.56;5107812;28;8863;-77
2022/07/12 00:13:32;;;;;;;;;14.20;14.20;;;;;19.46;44.78;99798.91;5111281;28;8857;-76
2022/07/12 00:16:00;;;;;;;;;12.40;11.80;;;;;19.45;44.87;99805.13;5107726;28;8881;-78
2022/07/12 00:18:29;;;;;;;;;15.80;13.80;;;;;19.42;44.95;99797.28;5105649;28;8902;-75
2022/07/12 00:20:58;;;;;;;;;13.20;13.20;;;;;19.40;45.04;99791.19;5086371;28;8843;-79
2022/07/12 00:23:27;;;;;;;;;13.00;12.00;;;;;19.39;45.31;99791.22;5069786;28;8864;-79
2022/07/12 00:25:57;;;;;;;;;15.00;14.20;;;;;19.37;45.11;99793.06;5088591;28;8843;-77
2022/07/12 00:28:25;;;;;;;;;13.00;13.00;;;;;19.35;45.33;99798.41;5089265;28;8868;-76
2022/07/12 00:30:54;;;;;;;;;13.00;12.00;;;;;19.33;45.25;99799.38;5073122;28;8852;-76
2022/07/12 00:33:23;;;;;;;;;6.20;6.20;;;;;19.33;45.47;99789.66;5055793;28;8970;-77
2022/07/12 00:35:51;;;;;;;;;17.80;14.60;;;;;19.29;45.25;99798.59;5091712;28;8952;-77
2022/07/12 00:38:20;;;;;;;;;17.20;15.60;;;;;19.27;45.44;99801.28;5055219;28;8887;-78
2022/07/12 00:40:49;;;;;;;;;11.60;11.60;;;;;19.26;45.54;99804.88;5039376;28;8892;-76
2022/07/12 00:43:19;;;;;;;;;12.00;12.00;;;;;19.25;45.71;99804.91;5109181;28;8869;-77
2022/07/12 00:45:47;;;;;;;;;8.20;8.00;;;;;19.22;45.61;99800.56;5094710;27;8871;-76
2022/07/12 00:48:18;;;;;;;;;17.60;13.20;;;;;19.20;45.47;99798.91;5090109;28;8870;-71
2022/07/12 00:50:47;;;;;;;;;14.20;12.80;;;;;19.18;45.98;99804.22;5109931;28;8944;-72
2022/07/12 00:53:23;;;;;;;;;10.60;10.40;;;;;19.17;45.76;99799.88;5110660;28;8873;-75
2022/07/12 00:55:54;;;;;;;;;7.00;7.00;;;;;19.17;45.94;99798.97;5092374;28;8954;-77
2022/07/12 00:58:25;;;;;;;;;16.60;14.60;;;;;19.15;46.07;99800.81;5109791;28;8849;-75
2022/07/12 01:00:56;;;;;;;;;13.40;13.40;;;;;19.09;45.95;99802.75;5110875;28;8844;-77
2022/07/12 01:03:26;;;;;;;;;13.80;12.20;;;;;19.08;46.14;99805.44;5092624;27;8883;-75
2022/07/12 01:05:56;;;;;;;;;15.00;14.00;;;;;19.06;46.17;99802.84;5022765;28;8844;-79
2022/07/12 01:08:24;;;;;;;;;14.80;13.40;;;;;19.05;46.15;99806.41;5091039;28;8879;-76
2022/07/12 01:10:53;;;;;;;;;14.40;14.40;;;;;19.02;46.46;99806.50;5093325;28;8841;-76
2022/07/12 01:13:22;;;;;;;;;11.40;9.60;;;;;18.98;46.42;99807.50;5111576;28;8873;-79
2022/07/12 01:15:54;;;;;;;;;13.80;12.40;;;;;18.95;46.35;99812.03;5059365;28;8965;-77
2022/07/12 01:18:23;;;;;;;;;8.60;8.40;;;;;18.94;46.77;99807.63;5110177;27;8872;-79
2022/07/12 01:20:52;;;;;;;;;11.80;11.80;;;;;18.89;46.58;99805.16;5092904;28;8841;-78
2022/07/12 01:23:23;;;;;;;;;13.80;11.00;;;;;18.89;47.01;99806.00;5127366;27;8868;-77
2022/07/12 01:25:52;;;;;;;;;6.40;4.40;;;;;18.84;47.06;99801.78;5110011;28;8849;-77
2022/07/12 01:28:21;;;;;;;;;12.60;11.80;;;;;18.81;47.17;99808.03;5094527;28;8852;-76
2022/07/12 01:30:50;;;;;;;;;16.40;16.00;;;;;18.65;47.80;99802.28;5089650;28;9677;-76
2022/07/12 01:33:20;;;;;;;;;16.40;13.80;;;;;18.67;47.61;99811.03;5108923;28;8837;-76
2022/07/12 01:35:49;;;;;;;;;11.20;11.20;;;;;18.67;47.61;99805.75;5089464;28;8853;-82
2022/07/12 01:38:18;;;;;;;;;13.80;13.80;;;;;18.66;47.74;99804.03;5070766;28;8937;-77
2022/07/12 01:40:48;;;;;;;;;9.80;8.60;;;;;18.67;47.53;99800.47;5070443;28;8842;-77
2022/07/12 01:43:17;;;;;;;;;10.80;10.80;;;;;18.68;47.51;99801.34;5070634;28;9691;-77
2022/07/12 01:45:46;;;;;;;;;11.60;11.60;;;;;18.66;47.63;99803.19;5071041;28;8898;-81
2022/07/12 01:48:14;;;;;;;;;12.00;11.40;;;;;18.66;47.84;99806.69;5090100;28;8863;-76
2022/07/12 01:50:43;;;;;;;;;13.00;13.00;;;;;18.64;47.73;99797.94;5106328;28;8890;-79
2022/07/12 01:53:13;;;;;;;;;15.00;12.20;;;;;18.61;47.93;99795.38;5072628;28;8937;-78
2022/07/12 01:55:42;;;;;;;;;16.60;11.80;;;;;18.59;48.02;99793.69;5088768;28;8855;-78
2022/07/12 01:58:14;;;;;;;;;14.00;12.80;;;;;18.51;48.02;99797.41;5088842;28;8870;-77
2022/07/12 02:00:50;;;;;;;;;13.00;12.80;;;;;18.52;47.97;99795.63;5105795;28;8895;-77
2022/07/12 02:03:20;;;;;;;;;13.80;12.60;;;;;18.50;48.19;99800.09;5088554;28;8867;-79
2022/07/12 02:05:49;;;;;;;;;10.60;10.60;;;;;18.49;48.50;99790.47;5088728;28;8939;-78
2022/07/12 02:08:17;;;;;;;;;12.40;11.20;;;;;18.45;48.40;99789.69;5098244;28;8853;-78
2022/07/12 02:10:46;;;;;;;;;11.20;11.20;;;;;18.39;48.73;99788.97;5044155;28;9611;-76
2022/07/12 02:13:16;;;;;;;;;10.40;10.40;;;;;18.39;48.59;99799.53;5047428;28;9701;-78
2022/07/12 02:15:44;;;;;;;;;9.20;9.20;;;;;18.38;48.62;99788.13;5047648;28;9033;-78
2022/07/12 02:18:13;;;;;;;;;12.40;12.20;;;;;18.37;48.56;99793.44;5047822;28;9550;-76
2022/07/12 02:20:41;;;;;;;;;9.80;9.00;;;;;18.35;48.60;99792.63;5064567;28;8894;-77
2022/07/12 02:23:10;;;;;;;;;13.40;11.40;;;;;18.31;48.54;99795.34;5047722;28;9625;-77
2022/07/12 02:25:39;;;;;;;;;10.40;9.20;;;;;18.30;48.83;99796.25;5030296;28;8852;-77
2022/07/12 02:28:07;;;;;;;;;10.40;9.20;;;;;18.29;48.55;99802.44;5047567;28;8867;-79
2022/07/12 02:30:37;;;;;;;;;9.80;9.80;;;;;18.27;48.81;99793.69;5028837;28;8862;-76
2022/07/12 02:33:06;;;;;;;;;8.00;8.00;;;;;18.26;48.56;99796.38;4996624;28;8875;-78
2022/07/12 02:35:34;;;;;;;;;9.20;9.20;;;;;18.23;48.60;99804.41;5048099;28;8856;-77
2022/07/12 02:38:03;;;;;;;;;10.60;10.60;;;;;18.21;48.97;99806.22;5047944;28;9003;-75
2022/07/12 02:43:18;;;;;;;;;9.00;9.00;;;;;18.18;48.79;99816.84;5089566;28;8933;-77
2022/07/12 02:45:48;;;;;;;;;10.00;9.80;;;;;18.18;48.75;99817.72;5106817;28;8941;-77
2022/07/12 02:48:16;;;;;;;;;12.80;11.80;;;;;18.17;48.91;99823.91;5083806;28;8940;-75
2022/07/12 02:50:45;;;;;;;;;7.20;7.20;;;;;18.16;48.70;99824.81;5107531;28;8853;-76
2022/07/12 02:53:13;;;;;;;;;7.00;7.00;;;;;18.15;48.78;99823.09;5089025;28;8849;-77
2022/07/12 02:55:42;;;;;;;;;8.60;8.20;;;;;18.13;48.92;99822.28;5068003;28;8899;-76
2022/07/12 02:58:11;;;;;;;;;11.80;11.60;;;;;18.14;48.69;99823.13;5089588;28;8884;-79
2022/07/12 03:00:40;;;;;;;;;8.00;8.00;;;;;18.12;48.84;99826.66;5108044;28;8853;-77
2022/07/12 03:03:10;;;;;;;;;11.20;9.80;;;;;18.11;48.68;99827.59;5108437;28;8888;-77
2022/07/12 03:05:39;;;;;;;;;12.60;10.40;;;;;18.08;48.86;99825.00;5032267;28;9000;-75
2022/07/12 03:08:09;;;;;;;;;14.20;9.40;;;;;18.07;49.13;99830.31;5047257;28;8931;-75
2022/07/12 03:10:38;;;;;;;;;12.20;9.20;;;;;18.03;49.14;99826.91;5028965;28;9121;-76
2022/07/12 03:13:07;;;;;;;;;8.20;8.20;;;;;18.04;48.98;99841.84;5047088;28;8967;-76
2022/07/12 03:15:36;;;;;;;;;9.00;9.00;;;;;18.03;49.16;99836.59;5029136;28;8838;-76
2022/07/12 03:18:05;;;;;;;;;11.00;10.20;;;;;18.04;48.96;99826.00;5033970;28;8885;-76
2022/07/12 03:20:35;;;;;;;;;55.25;45.50;;;;;18.03;49.07;99837.47;5047310;28;9583;-78
2022/07/12 03:23:03;;;;;;;;;46.75;39.25;;;;;18.04;49.26;99839.19;5050374;28;8926;-79
2022/07/12 03:25:32;;;;;;;;;12.60;11.60;;;;;18.00;49.48;99836.69;5031221;28;8855;-77
2022/07/12 03:28:00;;;;;;;;;12.00;9.60;;;;;18.03;49.23;99829.53;5047455;28;8867;-77
2022/07/12 03:30:29;;;;;;;;;9.00;8.00;;;;;18.04;49.56;99831.28;5030619;28;8850;-76
2022/07/12 03:32:58;;;;;;;;;11.40;9.80;;;;;18.08;49.18;99832.06;5032505;28;8874;-76
2022/07/12 03:35:26;;;;;;;;;11.60;10.80;;;;;18.15;49.34;99846.84;5038223;28;8850;-76
2022/07/12 03:37:56;;;;;;;;;12.40;9.00;;;;;18.19;49.40;99834.44;5082893;28;8872;-78
2022/07/12 03:40:25;;;;;;;;;5.80;5.00;;;;;18.24;49.13;99851.00;5070833;28;8890;-78
2022/07/12 03:42:54;;;;;;;;;14.00;12.40;;;;;18.23;49.00;99841.34;5087263;28;8952;-77
2022/07/12 03:45:23;;;;;;;;;11.20;10.40;;;;;18.33;48.87;99847.25;5103286;28;8885;-77
2022/07/12 03:47:52;;;;;;;;;9.40;9.40;;;;;18.31;48.84;99849.94;5087704;28;8852;-77
2022/07/12 03:50:21;;;;;;;;;3.80;3.80;;;;;18.29;48.87;99849.09;5087637;28;9069;-78
2022/07/12 03:52:49;;;;;;;;;11.60;10.00;;;;;18.36;49.15;99841.91;5087188;28;9637;-77
2022/07/12 03:55:20;;;;;;;;;11.20;9.00;;;;;18.44;48.89;99845.19;5086937;28;8859;-79
2022/07/12 03:57:49;;;;;;;;;14.00;10.80;;;;;18.48;48.78;99839.75;5070168;28;8848;-77
2022/07/12 04:00:18;;;;;;;;;12.00;11.80;;;;;18.54;48.52;99840.50;5069024;28;8923;-78
2022/07/12 04:02:46;;;;;;;;;19.00;18.40;;;;;18.53;48.09;99836.13;5107087;28;8844;-75
2022/07/12 04:05:15;;;;;;;;;20.60;17.00;;;;;18.57;48.48;99843.91;5074700;28;8936;-76
2022/07/12 04:07:44;;;;;;;;;14.60;10.20;;;;;18.62;48.23;99849.94;5109584;28;8855;-80
2022/07/12 04:10:12;;;;;;;;;9.40;9.20;;;;;18.70;48.18;99853.22;5090930;28;8856;-75
2022/07/12 04:12:42;;;;;;;;;13.00;9.40;;;;;18.82;48.08;99846.72;5107820;28;8869;-76
2022/07/12 04:15:11;;;;;;;;;14.40;14.00;;;;;18.87;47.35;99851.91;5076235;28;8844;-76
2022/07/12 04:17:39;;;;;;;;;20.20;20.20;;;;;18.78;47.64;99853.00;5105369;27;8861;-77
2022/07/12 04:20:09;;;;;;;;;15.60;14.80;;;;;18.94;47.61;99850.81;5109327;28;8868;-78
2022/07/12 04:22:39;;;;;;;;;10.80;10.80;;;;;18.86;47.50;99848.38;5071626;28;8956;-75
2022/07/12 04:25:09;;;;;;;;;13.00;11.00;;;;;19.02;47.45;99859.38;5108704;28;9656;-77
2022/07/12 04:27:37;;;;;;;;;18.80;17.00;;;;;19.13;47.17;99853.75;5107249;28;8837;-77
2022/07/12 04:30:09;;;;;;;;;49.00;40.50;;;;;19.22;47.30;99855.22;5090408;28;9620;-81
2022/07/12 04:32:37;;;;;;;;;21.75;20.50;;;;;19.36;47.08;99853.03;5041542;28;8961;-77
2022/07/12 04:35:07;;;;;;;;;12.40;10.40;;;;;19.49;46.47;99853.50;5108552;28;9016;-78
2022/07/12 04:37:36;;;;;;;;;11.40;11.40;;;;;19.60;46.37;99861.97;5087663;28;8844;-79
2022/07/12 04:40:06;;;;;;;;;12.80;10.00;;;;;19.74;46.16;99856.25;5089987;28;8876;-77
2022/07/12 04:42:34;;;;;;;;;8.20;7.80;;;;;19.85;45.86;99858.53;5110100;28;8861;-77
2022/07/12 04:45:04;;;;;;;;;13.00;13.00;;;;;19.95;45.29;99852.00;5091036;28;8937;-78
2022/07/12 04:47:36;;;;;;;;;12.40;11.00;;;;;20.08;45.43;99864.84;5108568;28;8844;-77
2022/07/12 04:50:06;;;;;;;;;9.60;8.80;;;;;20.15;45.18;99861.91;5106152;28;8892;-78
2022/07/12 04:52:35;;;;;;;;;13.40;12.20;;;;;20.24;45.09;99860.72;5090769;28;8952;-76
2022/07/12 04:55:03;;;;;;;;;8.20;8.20;;;;;20.35;44.74;99863.00;5108911;28;8869;-80
2022/07/12 04:57:32;;;;;;;;;11.60;11.60;;;;;20.43;44.66;99866.22;5109564;28;9655;-77
2022/07/12 05:00:00;;;;;;;;;9.80;8.00;;;;;20.53;44.61;99861.44;5110318;28;8975;-76
2022/07/12 05:02:29;;;;;;;;;11.20;10.60;;;;;20.60;44.34;99871.81;5111413;28;8833;-77
2022/07/12 05:04:59;;;;;;;;;10.60;10.60;;;;;20.61;44.61;99864.75;5110244;28;8975;-77
2022/07/12 05:07:28;;;;;;;;;9.80;9.40;;;;;20.32;44.83;99863.09;5101794;28;8859;-77
2022/07/12 05:09:57;;;;;;;;;8.00;8.00;;;;;20.24;44.82;99866.91;5091680;28;8906;-80
2022/07/12 05:12:25;;;;;;;;;11.80;11.00;;;;;20.31;45.26;99866.69;5091558;28;8867;-78
2022/07/12 05:14:54;;;;;;;;;11.20;10.60;;;;;20.35;44.74;99869.16;5055370;28;8852;-76
2022/07/12 05:17:23;;;;;;;;;11.00;11.00;;;;;20.48;44.85;99877.53;5106642;28;8848;-78
2022/07/12 05:19:51;;;;;;;;;9.60;9.60;;;;;20.63;44.78;99871.69;5072290;28;8852;-75
2022/07/12 05:22:21;;;;;;;;;10.40;8.60;;;;;20.80;44.34;99878.16;5072406;28;8851;-75
2022/07/12 05:24:50;;;;;;;;;8.80;8.80;;;;;20.95;44.06;99876.72;5091356;28;8964;-76
2022/07/12 05:27:19;;;;;;;;;10.40;9.20;;;;;20.99;43.92;99879.19;5075204;28;8907;-75
2022/07/12 05:29:47;;;;;;;;;12.40;11.40;;;;;21.13;43.57;99880.44;5094004;28;8843;-76
2022/07/12 05:32:16;;;;;;;;;10.00;10.00;;;;;21.24;43.42;99888.84;5121813;28;8837;-77
2022/07/12 05:34:45;;;;;;;;;10.40;10.40;;;;;21.34;43.33;99884.94;5127319;28;8991;-76
2022/07/12 05:37:13;;;;;;;;;8.00;8.00;;;;;21.14;43.33;99887.50;5106494;28;8876;-76
2022/07/12 05:39:43;;;;;;;;;14.00;14.00;;;;;20.83;44.08;99888.63;5107433;28;8860;-76
2022/07/12 05:42:12;;;;;;;;;9.40;9.00;;;;;20.57;44.57;99887.78;5108132;28;9583;-77
2022/07/12 05:44:41;;;;;;;;;10.40;10.00;;;;;20.19;45.08;99891.81;5090518;28;8879;-78
2022/07/12 05:47:09;;;;;;;;;11.40;11.00;;;;;19.59;46.13;99896.41;5095012;28;8998;-75
2022/07/12 05:49:38;;;;;;;;;11.00;11.00;;;;;19.67;46.33;99891.72;5088255;28;8906;-76
2022/07/12 05:54:54;;;;;;;;;11.00;10.40;;;;;18.76;48.23;99897.09;5072768;28;8859;-76
2022/07/12 05:57:23;;;;;;;;;14.00;14.00;;;;;18.77;49.20;99903.22;5054723;27;8865;-73
2022/07/12 05:59:51;;;;;;;;;12.20;12.20;;;;;18.62;49.82;99902.78;5108262;28;9575;-68
2022/07/12 06:02:20;;;;;;;;;1.00;0.00;;;;;19.03;48.53;99905.16;5108455;28;8928;-67
2022/07/12 06:04:49;;;;;;;;;11.20;10.20;;;;;19.31;47.72;99896.41;5108185;28;8849;-65
2022/07/12 06:07:19;;;;;;;;;10.20;10.20;;;;;19.72;46.83;99895.13;5096791;28;8839;-68
2022/07/12 06:09:48;;;;;;;;;10.80;10.20;;;;;19.41;47.47;99889.91;5087886;28;8874;-67
2022/07/12 06:12:17;;;;;;;;;10.20;9.80;;;;;19.13;47.62;99890.78;5087762;28;8880;-78
2022/07/12 06:14:48;;;;;;;;;11.40;11.40;;;;;18.94;48.23;99900.13;5103924;28;8844;-76
2022/07/12 06:17:21;;;;;;;;;9.40;8.00;;;;;19.47;46.96;99892.38;5117990;27;9003;-76
2022/07/12 06:19:49;;;;;;;;;9.20;8.00;;;;;19.94;46.08;99882.03;5106420;28;8975;-75
2022/07/12 06:22:18;;;;;;;;;14.40;13.00;;;;;19.77;46.53;99882.63;5071048;28;8831;-77
2022/07/12 06:24:47;;;;;;;;;11.00;8.80;;;;;19.89;46.33;99875.19;5095627;28;9007;-75
2022/07/12 06:27:17;;;;;;;;;10.20;10.20;;;;;19.96;45.91;99881.97;5091220;28;8982;-77
2022/07/12 06:29:47;;;;;;;;;9.00;9.00;;;;;20.14;45.24;99883.16;5051804;28;8832;-76
2022/07/12 06:32:17;;;;;;;;;8.20;7.60;;;;;20.36;44.54;99885.91;5085862;28;8844;-78
2022/07/12 06:34:45;;;;;;;;;7.40;7.00;;;;;20.23;44.25;99883.69;5100809;28;8845;-74
2022/07/12 06:37:14;;;;;;;;;10.00;9.00;;;;;20.31;43.87;99887.88;5106925;28;8885;-76
2022/07/12 06:39:43;;;;;;;;;11.00;10.20;;;;;19.78;45.67;99891.41;5107613;28;8861;-77
2022/07/12 06:42:12;;;;;;;;;9.20;9.20;;;;;19.92;44.77;99888.31;5107986;28;8849;-73
2022/07/12 06:44:52;;;;;;;;;8.00;8.00;;;;;20.34;43.83;99888.63;5088130;28;8859;-76
2022/07/12 06:47:21;;;;;;;;;8.60;8.00;;;;;20.03;44.54;99888.81;5093691;28;8856;-73
2022/07/12 06:49:49;;;;;;;;;11.00;9.20;;;;;20.45;43.80;99890.88;5088255;28;8883;-74
2022/07/12 06:52:18;;;;;;;;;11.00;10.40;;;;;20.76;43.69;99893.31;5089577;28;8944;-74
2022/07/12 06:54:46;;;;;;;;;11.20;11.00;;;;;20.33;44.64;99889.53;5096809;28;8825;-76
2022/07/12 06:57:15;;;;;;;;;12.60;11.40;;;;;20.55;44.46;99884.34;5112610;27;8982;-76
2022/07/12 06:59:44;;;;;;;;;12.80;11.80;;;;;20.33;44.79;99883.38;5089801;28;8863;-77
2022/07/12 07:02:14;;;;;;;;;10.00;10.00;;;;;20.38;44.33;99890.25;5105780;28;8859;-76
2022/07/12 07:04:42;;;;;;;;;9.80;8.80;;;;;20.86;43.63;99882.38;5089662;27;8842;-76
2022/07/12 07:07:12;;;;;;;;;8.00;8.00;;;;;21.21;42.71;99887.19;5109534;27;8861;-76
2022/07/12 07:09:42;;;;;;;;;13.60;10.00;;;;;20.71;44.46;99887.31;5107753;27;9539;-76
2022/07/12 07:12:10;;;;;;;;;10.20;9.20;;;;;21.06;43.26;99885.13;5081667;27;8872;-77
2022/07/12 07:14:39;;;;;;;;;9.20;8.80;;;;;20.75;42.83;99894.22;5091732;27;8861;-75
2022/07/12 07:17:08;;;;;;;;;9.00;9.00;;;;;20.66;43.61;99891.06;5107870;27;8857;-77
2022/07/12 07:19:39;;;;;;;;;9.60;9.00;;;;;20.81;43.24;99894.03;5105457;28;8871;-75
2022/07/12 07:22:07;;;;;;;;;11.00;9.20;;;;;21.31;42.44;99890.34;5105180;28;8888;-73
2022/07/12 07:24:36;;;;;;;;;10.60;10.40;;;;;21.55;41.71;99888.56;5075057;28;8828;-74
2022/07/12 07:27:05;;;;;;;;;10.00;9.40;;;;;21.17;43.40;99892.66;5056563;28;8881;-77
2022/07/12 07:32:20;;;;;;;;;8.60;8.20;;;;;20.91;41.37;99897.19;5084974;28;8877;-77
2022/07/12 07:34:50;;;;;;;;;8.00;8.00;;;;;20.62;43.30;99892.94;5066732;28;8859;-79
2022/07/12 07:37:18;;;;;;;;;10.00;10.00;;;;;20.78;44.03;99890.63;5054959;28;10236;-76
2022/07/12 07:39:48;;;;;;;;;9.40;9.40;;;;;20.83;43.39;99893.94;5006559;28;8831;-75
2022/07/12 07:42:16;;;;;;;;;9.60;7.60;;;;;20.50;43.47;99898.66;5071566;28;8860;-77
2022/07/12 07:44:45;;;;;;;;;9.00;8.20;;;;;20.51;44.61;99897.72;5068898;28;8873;-78
2022/07/12 07:47:43;;;;;;;;;8.20;8.20;;;;;20.77;44.96;99895.03;5071918;28;8882;-75
2022/07/12 07:50:33;;;;;;;;;9.00;8.00;;;;;20.80;44.52;99889.63;5068554;28;8948;-74
2022/07/12 07:53:02;;;;;;;;;10.00;9.40;;;;;20.76;42.88;99898.63;5051821;28;8853;-75
2022/07/12 07:55:31;;;;;;;;;14.20;10.60;;;;;20.94;42.54;99897.06;5068322;28;8955;-75
2022/07/12 07:58:00;;;;;;;;;9.40;8.40;;;;;20.79;42.49;99908.22;5058557;28;8866;-78
2022/07/12 08:00:29;;;;;;;;;8.00;8.00;;;;;20.60;43.08;99903.63;5071705;28;8946;-75
2022/07/12 08:02:59;;;;;;;;;10.00;9.60;;;;;20.70;42.86;99909.44;5071422;28;9170;-75
2022/07/12 08:05:27;;;;;;;;;11.80;10.40;;;;;20.73;42.68;99911.13;5071740;28;8889;-76
2022/07/12 08:07:58;;;;;;;;;9.40;9.40;;;;;20.95;42.12;99908.53;5071500;28;8858;-79
2022/07/12 08:10:27;;;;;;;;;5.00;5.00;;;;;20.99;41.47;99903.06;5055197;28;8996;-76
2022/07/12 08:12:56;;;;;;;;;10.80;9.20;;;;;21.12;40.89;99910.56;5088407;28;8857;-75
2022/07/12 08:15:25;;;;;;;;;6.20;6.20;;;;;20.93;40.59;99910.41;5105234;28;8853;-75
2022/07/12 08:17:54;;;;;;;;;7.00;7.00;;;;;20.92;39.90;99906.84;5034805;28;8878;-77
2022/07/12 08:20:23;;;;;;;;;6.80;6.80;;;;;20.82;39.70;99914.28;5101275;28;8992;-75
2022/07/12 08:23:14;;;;;;;;;8.20;8.20;;;;;20.55;41.17;99918.78;5101276;28;8824;-74
2022/07/12 08:25:42;;;;;;;;;8.80;7.00;;;;;20.67;41.85;99909.56;5094847;28;9000;-74
2022/07/12 08:28:11;;;;;;;;;8.60;7.20;;;;;20.80;41.84;99904.69;5096108;28;8853;-74
2022/07/12 08:30:40;;;;;;;;;9.80;9.80;;;;;21.03;41.32;99896.72;5063549;28;8846;-73
2022/07/12 08:33:14;;;;;;;;;7.00;7.00;;;;;21.12;39.33;99903.47;5094357;28;9035;-74
2022/07/12 08:35:44;;;;;;;;;9.00;9.00;;;;;21.49;39.19;99896.72;5055217;28;8972;-74
2022/07/12 08:38:15;;;;;;;;;6.80;6.80;;;;;21.34;39.24;99899.97;5103133;28;8876;-76
2022/07/12 08:40:44;;;;;;;;;11.00;10.00;;;;;21.47;39.56;99887.13;5109674;28;8857;-76
2022/07/12 08:43:13;;;;;;;;;7.20;7.20;;;;;21.70;38.77;99881.75;5110846;28;8841;-75
2022/07/12 08:45:42;;;;;;;;;6.60;6.60;;;;;22.18;37.21;99879.75;5110562;28;8929;-74
2022/07/12 08:48:11;;;;;;;;;8.00;7.20;;;;;22.11;37.06;99876.47;5074409;28;8860;-73
2022/07/12 08:50:39;;;;;;;;;6.20;5.20;;;;;22.51;36.33;99876.56;5126963;27;8907;-74
2022/07/12 08:53:14;;;;;;;;;5.00;5.00;;;;;22.80;35.52;99880.59;5060356;28;8861;-69
2022/07/12 08:55:42;;;;;;;;;6.60;6.60;;;;;23.22;35.40;99868.91;5106275;28;8861;-69
2022/07/12 08:58:18;;;;;;;;;9.20;9.20;;;;;23.52;35.31;99863.91;5107435;28;8899;-71
2022/07/12 09:00:47;;;;;;;;;8.20;8.20;;;;;23.82;34.79;99862.47;5054882;28;8847;-69
2022/07/12 09:03:18;;;;;;;;;4.60;4.60;;;;;24.29;34.64;99865.38;5109548;28;9032;-67
2022/07/12 09:05:53;;;;;;;;;10.40;10.40;;;;;24.21;33.62;99866.72;5108457;28;8899;-67
2022/07/12 09:08:32;;;;;;;;;8.80;8.80;;;;;22.95;34.56;99881.69;5103785;28;9542;-67
2022/07/12 09:11:02;;;;;;;;;5.60;5.60;;;;;22.42;33.75;99883.16;5089595;28;8864;-72
2022/07/12 09:13:49;;;;;;;;;6.40;6.00;;;;;22.70;32.73;99879.25;5088105;28;8848;-69
2022/07/12 09:16:20;;;;;;;;;2.00;2.00;;;;;23.02;31.17;99872.47;5089784;28;8859;-68
2022/07/12 09:18:50;;;;;;;;;2.60;2.40;;;;;23.34;31.69;99870.09;5088007;28;8828;-68
2022/07/12 09:21:22;;;;;;;;;4.00;4.00;;;;;23.58;31.11;99872.53;5089205;28;8851;-69
2022/07/12 09:23:57;;;;;;;;;3.00;3.00;;;;;22.77;31.06;99878.91;5089663;28;8824;-70
2022/07/12 09:26:32;;;;;;;;;3.00;2.20;;;;;22.97;31.45;99875.34;5088913;28;8840;-70
2022/07/12 09:29:09;;;;;;;;;3.00;3.00;;;;;23.24;30.66;99874.16;5089017;28;8852;-71
2022/07/12 09:37:12;;;;;;;;;2.40;2.40;;;;;23.44;29.69;99874.06;5095000;28;8968;-70
2022/07/12 09:39:43;;;;;;;;;1.60;1.60;;;;;23.55;29.89;99871.75;5089118;28;8816;-69
2022/07/12 09:42:13;;;;;;;;;2.00;2.00;;;;;23.92;30.22;99856.59;5087338;28;8853;-68
2022/07/12 09:44:42;;;;;;;;;1.60;1.60;;;;;24.05;30.03;99869.31;5088834;28;8832;-68
2022/07/12 09:47:13;;;;;;;;;3.00;3.00;;;;;23.47;29.80;99871.22;5088892;28;8840;-69
2022/07/12 09:49:42;;;;;;;;;2.00;2.00;;;;;23.06;30.67;99878.53;5088184;28;8939;-69
2022/07/12 09:52:13;;;;;;;;;3.00;3.00;;;;;23.10;30.80;99867.69;5091897;28;8837;-69
2022/07/12 09:54:43;;;;;;;;;4.20;4.20;;;;;23.50;30.40;99860.44;5068485;28;8856;-71
2022/07/12 09:57:19;;;;;;;;;4.00;4.00;;;;;23.61;30.07;99862.59;5088367;28;8875;-69
2022/07/12 09:59:48;;;;;;;;;3.40;3.40;;;;;23.93;30.02;99861.00;5088216;28;8960;-69
2022/07/12 10:02:19;;;;;;;;;3.00;3.00;;;;;23.91;30.10;99860.22;5087359;28;8867;-72
2022/07/12 10:04:48;;;;;;;;;3.20;3.20;;;;;24.31;29.81;99854.66;5088126;28;8947;-69
2022/07/12 10:07:17;;;;;;;;;3.00;3.00;;;;;24.64;29.13;99841.34;5099229;28;9634;-73
2022/07/12 10:09:50;;;;;;;;;3.20;3.20;;;;;24.07;29.60;99857.63;5091185;28;8936;-70
2022/07/12 10:12:20;;;;;;;;;3.20;3.20;;;;;24.19;28.75;99855.28;5062723;28;8859;-70
2022/07/12 10:14:54;;;;;;;;;3.00;3.00;;;;;24.52;28.80;99840.19;5088974;28;8854;-72
2022/07/12 10:17:23;;;;;;;;;4.20;4.20;;;;;24.56;28.15;99853.38;5086277;28;8865;-70
2022/07/12 10:20:17;;;;;;;;;3.00;3.00;;;;;23.90;28.13;99850.50;5070072;28;8943;-72
2022/07/12 10:22:46;;;;;;;;;3.20;3.20;;;;;24.29;28.21;99843.19;5097849;28;8846;-72
2022/07/12 10:25:33;;;;;;;;;3.20;3.20;;;;;23.85;28.00;99871.16;5085081;28;8854;-79
2022/07/12 10:28:03;;;;;;;;;2.00;2.00;;;;;23.26;28.62;99861.63;5077068;28;8856;-78
2022/07/12 10:30:43;;;;;;;;;3.20;3.20;;;;;23.16;29.46;99854.09;5089196;28;8847;-77
2022/07/12 10:33:19;;;;;;;;;3.00;3.00;;;;;23.23;29.71;99853.78;5082543;28;8958;-77
2022/07/12 10:36:02;;;;;;;;;5.20;3.20;;;;;23.33;29.89;99847.09;5049443;28;8952;-78
2022/07/12 10:38:31;;;;;;;;;4.80;4.80;;;;;23.49;29.74;99836.56;5043065;28;8934;-79
2022/07/12 10:41:18;;;;;;;;;4.60;4.60;;;;;23.66;29.10;99831.25;5028801;28;8858;-76
2022/07/12 10:46:36;;;;;;;;;3.80;3.80;;;;;23.52;28.42;99823.09;5046155;28;8978;-76
2022/07/12 10:49:27;;;;;;;;;3.20;3.20;;;;;23.05;28.88;99837.78;5028884;28;9654;-78
2022/07/12 10:52:23;;;;;;;;;2.60;2.60;;;;;23.05;28.94;99845.75;5062428;28;8858;-78
2022/07/12 10:55:19;;;;;;;;;3.60;3.60;;;;;23.39;27.78;99827.31;5029447;28;8960;-74
2022/07/12 10:57:54;;;;;;;;;3.20;3.20;;;;;23.46;27.59;99826.94;5045247;28;9012;-77
2022/07/12 11:00:23;;;;;;;;;3.60;2.60;;;;;23.51;27.79;99840.84;4994420;28;8873;-74
2022/07/12 11:02:55;;;;;;;;;4.00;3.20;;;;;23.31;27.89;99833.00;5044885;28;8870;-76
2022/07/12 11:05:27;;;;;;;;;5.20;3.80;;;;;23.32;28.15;99827.59;5081318;28;8849;-79
2022/07/12 11:07:57;;;;;;;;;5.40;3.40;;;;;23.69;28.11;99833.78;5051736;28;8858;-76
2022/07/12 11:10:25;;;;;;;;;5.20;5.00;;;;;24.12;27.71;99834.28;5081440;28;9060;-79
2022/07/12 11:12:55;;;;;;;;;3.00;3.00;;;;;23.92;27.72;99823.78;5087473;28;8851;-75
2022/07/12 11:15:24;;;;;;;;;3.40;3.20;;;;;24.37;28.13;99817.00;5087863;28;8990;-76
2022/07/12 11:17:53;;;;;;;;;6.60;4.80;;;;;24.87;27.20;99818.72;5075302;28;8879;-79
2022/07/12 11:20:29;;;;;;;;;2.20;2.20;;;;;25.26;26.24;99819.28;5079728;27;8844;-77
2022/07/12 11:22:58;;;;;;;;;5.80;5.00;;;;;25.35;26.04;99824.13;5086589;28;8970;-74
2022/07/12 11:25:27;;;;;;;;;4.00;4.00;;;;;24.65;26.92;99813.75;5081583;28;8886;-76
2022/07/12 11:27:57;;;;;;;;;3.80;3.80;;;;;24.63;26.81;99815.63;5093945;28;8857;-76
2022/07/12 11:30:25;;;;;;;;;6.60;4.80;;;;;24.86;27.53;99817.03;5105672;28;8961;-76
2022/07/12 11:32:54;;;;;;;;;3.00;3.00;;;;;24.80;26.83;99821.81;5106247;28;8911;-76
2022/07/12 11:35:25;;;;;;;;;4.00;4.00;;;;;24.95;26.66;99818.31;5106684;28;8899;-77
2022/07/12 11:37:56;;;;;;;;;3.80;3.80;;;;;24.97;26.72;99820.88;5106684;28;8910;-77
2022/07/12 11:40:27;;;;;;;;;6.00;6.00;;;;;24.96;27.22;99820.03;5106688;28;8845;-77
2022/07/12 11:42:59;;;;;;;;;3.80;3.60;;;;;25.17;25.91;99812.63;5124380;27;8845;-77
2022/07/12 11:45:29;;;;;;;;;5.00;5.00;;;;;24.98;26.04;99817.28;5090075;28;8917;-78
2022/07/12 11:48:01;;;;;;;;;4.80;4.80;;;;;25.12;26.26;99806.69;5086433;28;8994;-78
2022/07/12 11:50:31;;;;;;;;;3.80;3.80;;;;;25.58;26.66;99801.41;5087784;28;8886;-76
2022/07/12 11:53:04;;;;;;;;;4.00;4.00;;;;;25.41;26.00;99807.72;5086982;28;8901;-77
2022/07/12 11:55:42;;;;;;;;;5.40;5.20;;;;;25.18;26.81;99813.47;5103691;28;8891;-76
2022/07/12 11:58:14;;;;;;;;;3.20;3.00;;;;;25.36;26.24;99803.59;5086514;28;8855;-76
2022/07/12 12:00:44;;;;;;;;;4.00;3.40;;;;;25.75;25.56;99796.88;5086248;28;8886;-76
2022/07/12 12:03:13;;;;;;;;;3.40;3.40;;;;;25.43;25.20;99794.28;5087419;28;8844;-75
2022/07/12 12:05:42;;;;;;;;;4.80;4.80;;;;;25.90;24.98;99801.31;5069806;28;8885;-77